Time;durP1;ratioP1;P1;durP2;ratioP2;P2;SDS_P1;SDS_P2;PMS_P1;PMS_P2;Temp;Humidity;BMP_temperature;BMP_pressure;BME280_temperature;BME280_humidity;BME280_pressure;Samples;Min_cycle;Max_cycle;Signal;HPM_P1;HPM_P2
2022/05/09 00:02:24;;;;;;;11.60;5.18;;;;;;;;;;4987861;28;20045;-62
2022/05/09 00:04:50;;;;;;;12.07;3.75;;;;;;;;;;5034785;28;20579;-62
2022/05/09 00:07:16;;;;;;;14.63;4.85;;;;;;;;;;5034887;28;20485;-62
2022/05/09 00:09:42;;;;;;;12.90;3.50;;;;;;;;;;5032459;28;20056;-62
2022/05/09 00:12:08;;;;;;;11.52;4.28;;;;;;;;;;5031060;28;20091;-62
2022/05/09 00:14:34;;;;;;;15.48;3.30;;;;;;;;;;5032138;28;20061;-62
2022/05/09 00:17:00;;;;;;;14.35;3.60;;;;;;;;;;5017779;28;20045;-62
2022/05/09 00:19:26;;;;;;;25.08;4.95;;;;;;;;;;5033561;28;20489;-62
2022/05/09 00:21:53;;;;;;;13.90;3.80;;;;;;;;;;5034399;28;20052;-62
2022/05/09 00:24:19;;;;;;;16.23;3.90;;;;;;;;;;5030490;28;20095;-63
2022/05/09 00:26:45;;;;;;;14.68;4.35;;;;;;;;;;5034157;28;20042;-62
2022/05/09 00:29:13;;;;;;;14.90;3.50;;;;;;;;;;5034206;28;20052;-62
2022/05/09 00:31:40;;;;;;;10.70;3.30;;;;;;;;;;5021525;28;20056;-62
2022/05/09 00:34:07;;;;;;;10.13;4.85;;;;;;;;;;5012520;28;20446;-62
2022/05/09 00:36:33;;;;;;;17.25;3.80;;;;;;;;;;5033937;28;20049;-62
2022/05/09 00:39:01;;;;;;;13.02;4.13;;;;;;;;;;5020935;28;20041;-62
2022/05/09 00:41:37;;;;;;;17.30;4.05;;;;;;;;;;5029498;28;20460;-62
2022/05/09 00:44:09;;;;;;;19.40;6.10;;;;;;;;;;5030707;28;20049;-62
2022/05/09 00:46:35;;;;;;;12.70;4.20;;;;;;;;;;4997277;28;20060;-62
2022/05/09 00:49:32;;;;;;;14.07;5.22;;;6.00;99.90;;;;;;5006364;28;20053;-62
2022/05/09 00:52:17;;;;;;;19.85;4.22;;;;;;;;;;5026735;28;20053;-62
2022/05/09 00:54:47;;;;;;;25.13;4.80;;;;;;;;;;5073515;23;20061;-62
2022/05/09 00:57:16;;;;;;;15.85;4.38;;;;;;;;;;5014176;28;20085;-62
2022/05/09 00:59:43;;;;;;;15.93;4.97;;;;;;;;;;5028697;28;20081;-62
2022/05/09 01:02:10;;;;;;;19.08;4.97;;;;;;;;;;5016623;28;20045;-62
2022/05/09 01:04:45;;;;;;;15.85;4.50;;;;;;;;;;5024947;28;20056;-62
2022/05/09 01:07:11;;;;;;;21.15;4.90;;;;;;;;;;5033367;28;20045;-62
2022/05/09 01:09:37;;;;;;;19.52;5.15;;;;;;;;;;5024174;28;20077;-62
2022/05/09 01:12:04;;;;;;;27.60;5.15;;;;;;;;;;5034166;28;20088;-62
2022/05/09 01:14:32;;;;;;;25.05;5.60;;;;;;;;;;5078017;23;20463;-62
2022/05/09 01:16:59;;;;;;;18.63;4.65;;;;;;;;;;5053769;28;20045;-62
2022/05/09 01:19:30;;;;;;;22.40;4.60;;;;;;;;;;5051857;28;20045;-62
2022/05/09 01:21:56;;;;;;;15.77;3.63;;;;;;;;;;5052569;28;20049;-62
2022/05/09 01:24:24;;;;;;;14.52;4.50;;;;;;;;;;5046040;28;20404;-62
2022/05/09 01:26:50;;;;;;;14.65;4.53;;;;;;;;;;5040453;28;20049;-62
2022/05/09 01:29:19;;;;;;;17.42;5.55;;;;;;;;;;5045841;28;20062;-62
2022/05/09 01:31:46;;;;;;;18.17;4.75;;;;;;;;;;5033600;28;20048;-63
2022/05/09 01:34:13;;;;;;;11.10;3.85;;;;;;;;;;5033524;28;20049;-63
2022/05/09 01:36:40;;;;;;;13.55;4.40;;;;;;;;;;5048699;28;20485;-62
2022/05/09 01:39:07;;;;;;;15.50;4.50;;;;;;;;;;5046431;28;20045;-62
2022/05/09 01:41:39;;;;;;;16.27;4.30;;;;;;;;;;5018285;28;20465;-62
2022/05/09 01:44:05;;;;;;;12.35;3.63;;;;;;;;;;5032840;28;20558;-62
2022/05/09 01:46:32;;;;;;;12.68;4.32;;;;;;;;;;5022222;28;20132;-62
2022/05/09 01:51:44;;;;;;;11.88;4.05;;;;;;;;;;5050481;28;20052;-62
2022/05/09 01:54:10;;;;;;;15.23;4.28;;;;;;;;;;5052222;28;20037;-62
2022/05/09 01:56:37;;;;;;;13.65;4.97;;;;;;;;;;5046684;28;20041;-62
2022/05/09 01:59:04;;;;;;;16.08;4.75;;;;;;;;;;5045985;28;20505;-62
2022/05/09 02:01:35;;;;;;;14.05;4.32;;;;;;;;;;5013078;28;20045;-62
2022/05/09 02:04:01;;;;;;;13.70;4.47;;;;;;;;;;5015044;28;20042;-62
2022/05/09 02:06:27;;;;;;;13.90;4.70;;;;;;;;;;5034765;28;20053;-63
2022/05/09 02:08:53;;;;;;;11.32;4.57;;;;;;;;;;5033401;28;20073;-62
2022/05/09 02:11:19;;;;;;;17.70;4.95;;;;;;;;;;5035775;28;20076;-63
2022/05/09 02:13:45;;;;;;;15.60;4.70;;;;;;;;;;5051555;28;20405;-62
2022/05/09 02:16:11;;;;;;;14.60;4.65;;;;;;;;;;5048415;28;20409;-62
2022/05/09 02:18:38;;;;;;;18.88;4.70;;;;;;;;;;5020404;28;20053;-62
2022/05/09 02:21:04;;;;;;;10.50;4.97;;;;;;;;;;5038885;28;20135;-62
2022/05/09 02:23:31;;;;;;;14.88;4.32;;;;;;;;;;5051615;28;20071;-62
2022/05/09 02:25:57;;;;;;;19.58;4.93;;;;;;;;;;5032647;28;20416;-62
2022/05/09 02:28:23;;;;;;;18.05;5.03;;;;;;;;;;5039535;28;20536;-62
2022/05/09 02:30:50;;;;;;;13.93;5.15;;;;;;;;;;5049834;28;20191;-62
2022/05/09 02:33:16;;;;;;;12.48;4.50;;;;;;;;;;5052157;28;20048;-62
2022/05/09 02:35:43;;;;;;;16.05;5.05;;;;;;;;;;5046034;28;20563;-62
2022/05/09 02:38:09;;;;;;;13.93;4.47;;;;;;;;;;5047157;28;20495;-62
2022/05/09 02:40:35;;;;;;;17.50;5.20;;;;;;;;;;5051066;28;20049;-62
2022/05/09 02:43:02;;;;;;;20.70;5.85;;;;;;;;;;5052255;28;20036;-62
2022/05/09 02:45:29;;;;;;;17.25;5.72;;;;;;;;;;5032364;28;20076;-62
2022/05/09 02:47:55;;;;;;;18.80;5.28;;;;;;;;;;5050885;28;20121;-61
2022/05/09 02:50:22;;;;;;;14.40;4.53;;;;;;;;;;5043353;28;20076;-62
2022/05/09 02:52:48;;;;;;;13.23;5.75;;;;;;;;;;5033549;28;20449;-61
2022/05/09 02:55:15;;;;;;;14.30;4.57;;;;;;;;;;5038940;28;20045;-61
2022/05/09 02:57:42;;;;;;;13.55;4.22;;;;;;;;;;5034390;28;20112;-61
2022/05/09 03:00:10;;;;;;;19.90;5.03;;;;;;;;;;5043719;28;20089;-61
2022/05/09 03:02:36;;;;;;;12.50;4.35;;;;;;;;;;5052580;28;20441;-61
2022/05/09 03:05:02;;;;;;;11.57;4.47;;;;;;;;;;5022400;28;20073;-61
2022/05/09 03:07:28;;;;;;;15.15;4.75;;;;;;;;;;5032360;28;20049;-61
2022/05/09 03:09:54;;;;;;;16.05;5.55;;;;;;;;;;5031539;28;20041;-61
2022/05/09 03:12:20;;;;;;;16.52;4.47;;;;;;;;;;5023028;28;20048;-61
2022/05/09 03:14:47;;;;;;;14.52;4.95;;;;;;;;;;5051027;28;20483;-61
2022/05/09 03:17:14;;;;;;;14.85;5.05;;;;;;;;;;5049439;28;20084;-61
2022/05/09 03:19:40;;;;;;;15.68;4.80;;;;;;;;;;5053667;28;20084;-61
2022/05/09 03:22:07;;;;;;;14.73;4.80;;;;;;;;;;5054532;28;20092;-62
2022/05/09 03:24:33;;;;;;;15.57;4.80;;;;;;;;;;5054789;28;20126;-61
2022/05/09 03:27:01;;;;;;;13.63;4.07;;;;;;;;;;5045024;28;20050;-61
2022/05/09 03:29:28;;;;;;;21.25;5.68;;;;;;;;;;5036173;28;20053;-62
2022/05/09 03:31:54;;;;;;;18.30;4.85;;;;;;;;;;5033158;28;20397;-61
2022/05/09 03:34:20;;;;;;;11.63;4.57;;;;;;;;;;5055313;28;20179;-61
2022/05/09 03:36:47;;;;;;;10.18;4.53;;;;;;;;;;5047105;28;20049;-62
2022/05/09 03:39:14;;;;;;;21.30;5.60;;;;;;;;;;5030110;28;20048;-62
2022/05/09 03:41:40;;;;;;;13.35;5.72;;;;;;;;;;5042035;28;20057;-62
2022/05/09 03:44:06;;;;;;;16.10;4.78;;;;;;;;;;5040242;28;20481;-62
2022/05/09 03:46:33;;;;;;;13.20;4.75;;;;;;;;;;5027861;28;20057;-62
2022/05/09 03:49:01;;;;;;;15.32;5.03;;;;;;;;;;5038533;28;20051;-62
2022/05/09 03:51:27;;;;;;;10.18;4.80;;;;;;;;;;5044192;28;20060;-62
2022/05/09 03:53:53;;;;;;;13.98;4.97;;;;;;;;;;5012812;28;20052;-61
2022/05/09 03:56:19;;;;;;;15.93;4.75;;;;;;;;;;5034476;28;20055;-61
2022/05/09 03:58:45;;;;;;;15.27;5.05;;;;;;;;;;5053358;28;20052;-62
2022/05/09 04:01:11;;;;;;;16.67;5.68;;;;;;;;;;5046097;28;20098;-62
2022/05/09 04:03:38;;;;;;;14.15;4.47;;;;;;;;;;5049328;28;20049;-61
2022/05/09 04:06:04;;;;;;;19.23;4.78;;;;;;;;;;5054408;28;20048;-61
2022/05/09 04:08:30;;;;;;;14.60;4.90;;;;;;;;;;5054939;28;20041;-61
2022/05/09 04:10:56;;;;;;;20.13;5.05;;;;;;;;;;5048217;28;20068;-61
2022/05/09 04:13:22;;;;;;;15.40;4.93;;;;;;;;;;5040263;28;20500;-61
2022/05/09 04:18:37;;;;;;;19.33;5.50;;;;;;;;;;5052425;28;20517;-61
2022/05/09 04:21:03;;;;;;;16.00;5.70;;;;;;;;;;5043098;28;20041;-61
2022/05/09 04:23:30;;;;;;;13.68;4.70;;;;;;;;;;5053087;28;20049;-62
2022/05/09 04:25:56;;;;;;;19.48;6.65;;;;;;;;;;5047118;28;20124;-61
2022/05/09 04:28:22;;;;;;;21.58;6.55;;;;;;;;;;5048497;28;20459;-62
2022/05/09 04:30:48;;;;;;;17.13;6.65;;;;;;;;;;5058832;23;20497;-62
2022/05/09 04:33:15;;;;;;;17.23;5.80;;;;;;;;;;5049028;23;21069;-62
2022/05/09 04:35:42;;;;;;;18.60;5.50;;;;;;;;;;5018629;28;20081;-62
2022/05/09 04:38:13;;;;;;;17.60;6.25;;;;;;;;;;5033148;28;20049;-61
2022/05/09 04:40:38;;;;;;;;;;;5.10;99.90;;;;;;5034833;28;20041;-61
2022/05/09 04:43:04;;;;;;;14.18;4.95;;;;;;;;;;5034158;28;19928;-61
2022/05/09 04:45:31;;;;;;;16.23;6.20;;;;;;;;;;5026779;28;20068;-60
2022/05/09 04:47:58;;;;;;;15.68;6.38;;;;;;;;;;5030977;28;20053;-61
2022/05/09 04:50:24;;;;;;;14.88;5.57;;;;;;;;;;5060611;23;20084;-60
2022/05/09 04:52:50;;;;;;;13.63;5.78;;;;;;;;;;5031609;23;20088;-60
2022/05/09 04:55:17;;;;;;;11.35;5.05;;;;;;;;;;5053270;28;20465;-60
2022/05/09 04:57:43;;;;;;;15.52;5.90;;;;;;;;;;5053230;28;20488;-60
2022/05/09 05:00:14;;;;;;;24.90;7.20;;;;;;;;;;5054088;28;20033;-60
2022/05/09 05:02:40;;;;;;;15.50;6.30;;;;;;;;;;5036487;28;20044;-61
2022/05/09 05:05:07;;;;;;;23.40;5.93;;;;;;;;;;5051896;28;20053;-62
2022/05/09 05:07:33;;;;;;;17.10;5.55;;;;;;;;;;5054189;28;20049;-61
2022/05/09 05:09:59;;;;;;;20.45;6.45;;;;;;;;;;5053849;28;20049;-61
2022/05/09 05:12:26;;;;;;;12.88;5.53;;;;;;;;;;5053326;28;20041;-61
2022/05/09 05:14:52;;;;;;;17.30;5.55;;;;;;;;;;5052762;28;20452;-61
2022/05/09 05:17:18;;;;;;;15.18;5.00;;;;;;;;;;5030991;28;20555;-61
2022/05/09 05:19:44;;;;;;;24.60;6.32;;;;;;;;;;5034657;28;20056;-61
2022/05/09 05:22:15;;;;;;;21.40;5.82;;;;;;;;;;5053420;28;20489;-61
2022/05/09 05:24:43;;;;;;;;;;;6.80;99.90;;;;;;5035449;28;20555;-61
2022/05/09 05:27:10;;;;;;;22.33;5.60;;;;;;;;;;5053679;28;20023;-61
2022/05/09 05:29:36;;;;;;;19.35;5.47;;;;;;;;;;5034116;28;20084;-61
2022/05/09 05:32:13;;;;;;;18.33;5.95;;;;;;;;;;5053419;28;20055;-61
2022/05/09 05:34:39;;;;;;;18.10;5.32;;;;;;;;;;5053245;28;20060;-61
2022/05/09 05:37:05;;;;;;;15.82;4.97;;;;;;;;;;5053661;28;20370;-61
2022/05/09 05:39:34;;;;;;;16.00;5.78;;;;;;;;;;5034096;28;20049;-61
2022/05/09 05:42:00;;;;;;;24.33;6.57;;;;;;;;;;5053076;28;20056;-61
2022/05/09 05:44:26;;;;;;;19.30;5.32;;;;;;;;;;5052218;28;20128;-61
2022/05/09 05:46:52;;;;;;;17.10;5.32;;;;;;;;;;5051181;28;20120;-61
2022/05/09 05:49:18;;;;;;;21.67;5.18;;;;;;;;;;5044981;28;20540;-62
2022/05/09 05:51:44;;;;;;;19.80;6.25;;;;;;;;;;5051133;28;20141;-61
2022/05/09 05:54:10;;;;;;;24.85;7.10;;;;;;;;;;5053026;28;20412;-61
2022/05/09 05:56:37;;;;;;;14.65;5.43;;;;;;;;;;5032047;28;20048;-62
2022/05/09 05:59:04;;;;;;;23.75;5.43;;;;;;;;;;5051538;28;20508;-61
2022/05/09 06:01:30;;;;;;;11.80;4.85;;;;;;;;;;5038429;28;20429;-61
2022/05/09 06:03:56;;;;;;;20.38;6.03;;;;;;;;;;5030257;28;20049;-61
2022/05/09 06:06:22;;;;;;;22.98;5.53;;;;;;;;;;5053019;28;20056;-61
2022/05/09 06:08:48;;;;;;;16.88;6.22;;;;;;;;;;5052017;28;20112;-61
2022/05/09 06:11:14;;;;;;;19.15;5.40;;;;;;;;;;5052829;28;20044;-61
2022/05/09 06:13:41;;;;;;;16.63;5.47;;;;;;;;;;5033790;28;20136;-61
2022/05/09 06:16:07;;;;;;;19.73;6.72;;;;;;;;;;5052773;28;20045;-61
2022/05/09 06:18:33;;;;;;;16.50;4.95;;;;;;;;;;5049369;28;20076;-62
2022/05/09 06:20:59;;;;;;;18.60;4.70;;;;;;;;;;5052525;28;20067;-62
2022/05/09 06:23:25;;;;;;;16.38;5.25;;;;;;;;;;5052043;28;20127;-61
2022/05/09 06:25:51;;;;;;;26.55;5.97;;;;;;;;;;5033800;28;20044;-61
2022/05/09 06:28:18;;;;;;;14.27;5.40;;;;;;;;;;5052604;28;20045;-62
2022/05/09 06:30:44;;;;;;;14.30;4.63;;;;;;;;;;5033454;28;20052;-62
2022/05/09 06:33:11;;;;;;;16.70;5.05;;;;;;;;;;5052663;28;20041;-62
2022/05/09 06:35:43;;;;;;;14.30;4.40;;;;;;;;;;5052351;28;20055;-61
2022/05/09 06:38:14;;;;;;;22.15;4.90;;;;;;;;;;5052372;28;20037;-62
2022/05/09 06:40:40;;;;;;;;;;;12.50;99.90;;;;;;5051958;28;20405;-61
2022/05/09 06:43:07;;;;;;;13.52;4.15;;;;;;;;;;5051678;28;19928;-62
2022/05/09 06:45:33;;;;;;;13.32;4.43;;;;;;;;;;5052612;28;20053;-62
2022/05/09 06:47:59;;;;;;;14.75;4.13;;;;;;;;;;5052384;28;20044;-61
2022/05/09 06:50:32;;;;;;;12.07;4.35;;;;;;;;;;5047250;28;20171;-62
2022/05/09 06:52:59;;;;;;;18.38;4.88;;;;;;;;;;5030418;28;20089;-61
2022/05/09 06:55:25;;;;;;;20.30;5.07;;;;;;;;;;5030836;28;20041;-62
2022/05/09 06:57:51;;;;;;;21.58;4.70;;;;;;;;;;5048811;28;20389;-62
2022/05/09 07:00:20;;;;;;;13.75;4.53;;;;;;;;;;5018145;28;20125;-62
2022/05/09 07:02:46;;;;;;;15.70;5.40;;;;;;;;;;5032350;28;20401;-62
2022/05/09 07:05:13;;;;;;;19.77;4.75;;;;;;;;;;5030811;28;20054;-62
2022/05/09 07:07:40;;;;;;;16.08;4.18;;;;;;;;;;5032253;28;20172;-62
2022/05/09 07:10:06;;;;;;;10.82;4.13;;;;;;;;;;5027467;28;20046;-62
2022/05/09 07:12:50;;;;;;;20.73;4.68;;;14.90;99.90;;;;;;5029657;28;20057;-63
2022/05/09 07:15:17;;;;;;;16.50;4.65;;;;;;;;;;5029364;28;20750;-63
2022/05/09 07:17:45;;;;;;;15.38;4.82;;;;;;;;;;5031624;28;20049;-63
2022/05/09 07:20:11;;;;;;;10.85;3.97;;;15.10;99.90;;;;;;5026899;28;20084;-62
2022/05/09 07:22:37;;;;;;;16.90;4.30;;;;;;;;;;5030640;28;20057;-62
2022/05/09 07:25:03;;;;;;;19.52;4.75;;;;;;;;;;5029423;28;20052;-62
2022/05/09 07:27:30;;;;;;;13.13;3.90;;;;;;;;;;5029740;28;20096;-62
2022/05/09 07:29:56;;;;;;;14.32;4.05;;;;;;;;;;5026242;28;20055;-62
2022/05/09 07:32:22;;;;;;;15.20;4.80;;;15.40;99.90;;;;;;5028856;28;20041;-62
2022/05/09 07:34:49;;;;;;;12.85;4.32;;;;;;;;;;5029163;28;20367;-63
2022/05/09 07:37:15;;;;;;;16.85;4.07;;;;;;;;;;5022934;28;20099;-63
2022/05/09 07:39:41;;;;;;;13.23;3.97;;;;;;;;;;5025328;28;20042;-63
2022/05/09 07:42:08;;;;;;;13.07;4.22;;;15.90;99.90;;;;;;5024144;28;20041;-63
2022/05/09 07:44:34;;;;;;;13.23;4.10;;;16.00;99.90;;;;;;5024035;28;20042;-62
2022/05/09 07:47:00;;;;;;;15.60;4.03;;;;;;;;;;5022282;28;20128;-62
2022/05/09 07:49:26;;;;;;;13.35;4.22;;;;;;;;;;5018276;28;21442;-62
2022/05/09 07:51:52;;;;;;;11.18;3.90;;;;;;;;;;5021204;28;20496;-62
2022/05/09 07:54:18;;;;;;;19.83;4.15;;;17.10;99.90;;;;;;5031933;28;20049;-63
2022/05/09 07:56:44;;;;;;;12.60;4.05;;;;;;;;;;5049338;28;20457;-62
2022/05/09 07:59:10;;;;;;;10.15;3.25;;;;;;;;;;5043933;28;20041;-62
2022/05/09 08:01:36;;;;;;;15.32;3.97;;;;;;;;;;5043068;28;20053;-65
2022/05/09 08:04:02;;;;;;;14.80;4.35;;;;;;;;;;5053112;28;20704;-63
2022/05/09 08:06:28;;;;;;;9.88;3.25;;;;;;;;;;5036669;28;20044;-63
2022/05/09 08:08:54;;;;;;;14.38;3.60;;;18.20;99.90;;;;;;5053553;28;20061;-63
2022/05/09 08:11:21;;;;;;;14.38;3.38;;;;;;;;;;5055171;28;20123;-64
2022/05/09 08:13:47;;;;;;;13.25;3.22;;;;;;;;;;5054843;28;20048;-63
2022/05/09 08:16:14;;;;;;;113.22;14.57;;;18.70;99.90;;;;;;5047195;23;20471;-63
2022/05/09 08:18:40;;;;;;;15.05;3.30;;;18.90;99.90;;;;;;5033334;28;20383;-63
2022/05/09 08:21:06;;;;;;;16.10;4.00;;;;;;;;;;5027977;28;20063;-63
2022/05/09 08:23:32;;;;;;;12.43;3.33;;;18.60;99.90;;;;;;5036025;28;20516;-63
2022/05/09 08:26:02;;;;;;;11.75;3.20;;;18.60;99.90;;;;;;5049742;28;20124;-63
2022/05/09 08:28:27;;;;;;;13.32;3.05;;;18.50;99.90;;;;;;5036337;28;20052;-62
2022/05/09 08:30:54;;;;;;;13.57;3.58;;;;;;;;;;5043190;23;20058;-63
2022/05/09 08:33:23;;;;;;;12.05;3.47;;;19.40;99.90;;;;;;5022974;23;20057;-64
2022/05/09 08:35:51;;;;;;;13.88;3.00;;;19.50;99.90;;;;;;5041557;23;20050;-62
2022/05/09 08:38:18;;;;;;;16.60;3.90;;;;;;;;;;5022044;28;20520;-63
2022/05/09 08:41:02;;;;;;;10.25;3.10;;;19.90;99.90;;;;;;5020437;28;20514;-63
2022/05/09 08:43:50;;;;;;;15.63;3.38;;;19.80;99.90;;;;;;5033954;28;20054;-63
2022/05/09 08:47:00;;;;;;;9.65;2.83;;;20.20;99.90;;;;;;5032927;28;20490;-63
2022/05/09 08:49:50;;;;;;;10.85;2.95;;;20.50;99.90;;;;;;4991349;28;20046;-63
2022/05/09 08:52:26;;;;;;;14.93;3.20;;;20.60;99.90;;;;;;5031115;28;20037;-64
2022/05/09 08:54:54;;;;;;;11.45;2.75;;;20.70;99.90;;;;;;5014298;28;20449;-63
2022/05/09 08:57:25;;;;;;;14.40;4.28;;;20.80;99.90;;;;;;5029924;28;20532;-63
2022/05/09 09:00:10;;;;;;;8.70;2.90;;;20.70;99.90;;;;;;5028607;28;20049;-72
2022/05/09 09:02:54;;;;;;;39.72;3.55;;;20.70;99.90;;;;;;5031296;28;20037;-75
2022/05/09 09:05:23;;;;;;;9.88;2.45;;;20.80;99.90;;;;;;5027391;28;20077;-74
2022/05/09 09:08:00;;;;;;;10.90;2.80;;;20.90;99.90;;;;;;5034446;28;20033;-74
2022/05/09 09:10:49;;;;;;;13.13;2.50;;;20.90;99.90;;;;;;5015192;28;20041;-68
2022/05/09 09:13:23;;;;;;;8.48;2.15;;;20.90;99.90;;;;;;5015812;28;20037;-68
2022/05/09 09:16:16;;;;;;;15.13;4.28;;;20.90;99.30;;;;;;5015413;28;20045;-67
2022/05/09 09:19:04;;;;;;;11.73;2.42;;;20.60;99.30;;;;;;4932809;29;20174;-68
2022/05/09 09:21:36;;;;;;;8.75;2.10;;;20.70;99.90;;;;;;4917691;29;21743;-71
2022/05/09 09:24:48;;;;;;;15.13;2.88;;;22.40;99.60;;;;;;4933491;29;20066;-68
2022/05/09 09:27:13;;;;;;;14.60;2.42;;;21.50;98.00;;;;;;4900980;29;20052;-67
2022/05/09 09:29:46;;;;;;;12.85;2.30;;;21.40;97.00;;;;;;4927409;29;20612;-68
2022/05/09 09:32:15;;;;;;;22.20;3.47;;;21.40;96.00;;;;;;4934643;29;20059;-68
2022/05/09 09:34:56;;;;;;;9.43;2.42;;;21.20;96.80;;;;;;4919216;28;20183;-69
2022/05/09 09:37:40;;;;;;;12.73;2.60;;;21.20;96.90;;;;;;4918289;29;20521;-67
2022/05/09 09:40:07;;;;;;;14.50;3.58;;;21.30;94.60;;;;;;4929688;29;20845;-66
2022/05/09 09:42:35;;;;;;;7.25;2.00;;;21.00;95.10;;;;;;4934893;29;20481;-64
2022/05/09 09:45:14;;;;;;;10.20;2.83;;;21.10;95.20;;;;;;4939109;29;20226;-65
2022/05/09 09:47:39;;;;;;;10.85;2.50;;;21.10;94.10;;;;;;4938904;29;20043;-65
2022/05/09 09:50:14;;;;;;;11.68;2.83;;;21.30;93.10;;;;;;4953183;28;20055;-65
2022/05/09 09:53:07;;;;;;;9.98;2.78;;;21.30;93.60;;;;;;4932544;29;20035;-68
2022/05/09 09:55:36;;;;;;;9.18;2.33;;;21.30;94.80;;;;;;4979331;28;20072;-64
2022/05/09 09:58:24;;;;;;;10.30;2.75;;;21.30;93.40;;;;;;5032430;28;20415;-65
2022/05/09 10:01:12;;;;;;;12.63;2.53;;;21.20;92.10;;;;;;5026112;28;20046;-66
2022/05/09 10:03:41;;;;;;;8.80;2.33;;;21.00;94.70;;;;;;5021136;28;20049;-72
2022/05/09 10:06:21;;;;;;;15.40;3.05;;;21.00;94.80;;;;;;5025234;28;20091;-65
2022/05/09 10:08:54;;;;;;;12.85;3.10;;;21.20;95.10;;;;;;5027530;28;20120;-63
2022/05/09 10:11:20;;;;;;;7.57;2.17;;;21.50;94.60;;;;;;5038176;28;20124;-63
2022/05/09 10:13:52;;;;;;;11.55;2.53;;;21.50;94.10;;;;;;5027619;28;20124;-64
2022/05/09 10:16:24;;;;;;;11.40;2.60;;;21.40;93.30;;;;;;5031888;28;20034;-67
2022/05/09 10:18:52;;;;;;;11.40;2.85;;;21.50;92.60;;;;;;5032971;28;20045;-67
2022/05/09 10:24:49;;;;;;;11.93;2.53;;;22.10;93.40;;;;;;5027720;28;20397;-65
2022/05/09 10:27:20;;;;;;;8.48;2.35;;;22.10;91.90;;;;;;5021722;28;20045;-69
2022/05/09 10:29:48;;;;;;;11.02;2.50;;;22.10;91.90;;;;;;5023191;28;20037;-65
2022/05/09 10:32:16;;;;;;;8.75;2.80;;;22.40;91.90;;;;;;5020852;28;20366;-65
2022/05/09 10:34:49;;;;;;;9.52;2.60;;;22.30;91.70;;;;;;5019107;28;20045;-61
2022/05/09 10:38:02;;;;;;;11.98;2.33;;;22.00;91.80;;;;;;5025767;28;20124;-61
2022/05/09 10:40:41;;;;;;;8.13;2.00;;;22.00;92.10;;;;;;4945622;28;20432;-61
2022/05/09 10:43:30;;;;;;;15.13;3.05;;;21.90;91.00;;;;;;5013690;28;20052;-63
2022/05/09 10:45:56;;;;;;;8.82;2.17;;;21.60;92.20;;;;;;5010745;28;20384;-63
2022/05/09 10:48:22;;;;;;;8.32;2.50;;;;;;;;;;5030069;28;20128;-62
2022/05/09 10:50:49;;;;;;;5.50;1.95;;;;;;;;;;5031780;28;20049;-60
2022/05/09 10:53:21;;;;;;;8.63;1.90;;;21.80;89.30;;;;;;5010609;28;20530;-70
2022/05/09 10:56:04;;;;;;;8.82;2.63;;;21.80;91.30;;;;;;5015028;28;20085;-65
2022/05/09 10:59:02;;;;;;;10.75;2.45;;;21.80;91.90;;;;;;5020169;28;20053;-72
2022/05/09 11:01:31;;;;;;;6.07;1.63;;;22.60;91.50;;;;;;5021119;28;20046;-68
2022/05/09 11:03:57;;;;;;;7.55;2.28;;;22.60;91.40;;;;;;5022548;28;20037;-72
2022/05/09 11:06:42;;;;;;;8.13;2.55;;;22.70;88.20;;;;;;4980095;28;20049;-70
2022/05/09 11:09:24;;;;;;;9.02;2.35;;;22.90;90.70;;;;;;4987169;28;20469;-72
2022/05/09 11:12:08;;;;;;;7.32;2.20;;;23.20;90.20;;;;;;5002372;28;20069;-73
2022/05/09 11:14:40;;;;;;;6.15;2.40;;;23.20;85.50;;;;;;4985882;28;20053;-70
2022/05/09 11:17:25;;;;;;;6.45;2.17;;;21.70;86.70;;;;;;4985412;28;20033;-66
2022/05/09 11:19:53;;;;;;;8.70;2.45;;;22.80;87.90;;;;;;5008181;28;20121;-65
2022/05/09 11:22:19;;;;;;;8.52;2.65;;;;;;;;;;5015704;28;20060;-64
2022/05/09 11:25:14;;;;;;;7.80;1.95;;;22.90;90.30;;;;;;5023721;28;20068;-67
2022/05/09 11:28:02;;;;;;;6.60;1.92;;;22.70;89.00;;;;;;5023190;28;20042;-67
2022/05/09 11:30:28;;;;;;;12.85;2.90;;;;;;;;;;5022686;28;20090;-67
2022/05/09 11:33:28;;;;;;;6.97;1.40;;;22.40;86.00;;;;;;5023232;28;20412;-68
2022/05/09 11:36:05;;;;;;;5.05;1.77;;;22.50;88.70;;;;;;5023195;28;20072;-66
2022/05/09 11:38:42;;;;;;;7.32;1.83;;;22.40;86.90;;;;;;5026097;28;20084;-66
2022/05/09 11:41:26;;;;;;;7.57;2.10;;;22.80;88.60;;;;;;5006984;28;20065;-70
2022/05/09 11:43:55;;;;;;;7.97;2.03;;;;;;;;;;5017086;28;20056;-67
2022/05/09 11:46:52;;;;;;;10.45;2.15;;;22.90;85.80;;;;;;5013823;28;20061;-66
2022/05/09 11:49:51;;;;;;;9.65;1.77;;;23.00;88.70;;;;;;5035409;28;20424;-67
2022/05/09 11:52:22;;;;;;;7.63;2.13;;;23.00;89.40;;;;;;5019187;28;20045;-67
2022/05/09 11:54:49;;;;;;;7.85;1.90;;;;;;;;;;5026151;28;20382;-72
2022/05/09 11:57:26;;;;;;;4.97;2.10;;;23.20;90.00;;;;;;5003950;28;20045;-67
2022/05/09 11:59:58;;;;;;;10.52;2.55;;;23.20;87.70;;;;;;4995933;28;20115;-67
2022/05/09 12:02:41;;;;;;;11.43;2.20;;;23.20;87.60;;;;;;5032275;28;20377;-68
2022/05/09 12:05:25;;;;;;;6.75;1.98;;;23.20;88.30;;;;;;5034189;28;20061;-69
2022/05/09 12:08:13;;;;;;;6.22;1.80;;;23.20;84.40;;;;;;5029536;28;20049;-68
2022/05/09 12:10:42;;;;;;;5.43;1.60;;;23.20;84.30;;;;;;5034751;28;20045;-67
2022/05/09 12:13:14;;;;;;;7.93;2.13;;;23.30;88.30;;;;;;5092585;23;20420;-68
2022/05/09 12:15:49;;;;;;;8.02;2.10;;;23.20;86.70;;;;;;5025104;28;20050;-71
2022/05/09 12:18:45;;;;;;;9.10;2.33;;;23.20;86.90;;;;;;5033636;28;20386;-72
2022/05/09 12:21:19;;;;;;;8.95;2.17;;;23.30;85.50;;;;;;5034894;28;20450;-70
2022/05/09 12:23:44;;;;;;;7.80;1.88;;;23.30;87.20;;;;;;5016294;28;20057;-69
2022/05/09 12:26:28;;;;;;;8.10;2.65;;;23.30;87.10;;;;;;5028320;28;20045;-67
2022/05/09 12:29:26;;;;;;;7.13;2.25;;;23.30;85.30;;;;;;5032019;28;20080;-72
2022/05/09 12:31:57;;;;;;;6.50;2.40;;;23.30;84.80;;;;;;5017244;28;20378;-69
2022/05/09 12:34:36;;;;;;;8.63;2.10;;;23.40;83.90;;;;;;5025428;28;20042;-72
2022/05/09 12:37:03;;;;;;;8.95;2.10;;;23.20;87.00;;;;;;5025648;28;20057;-70
2022/05/09 12:39:36;;;;;;;6.85;2.10;;;23.30;88.20;;;;;;5021422;28;20563;-67
2022/05/09 12:42:11;;;;;;;6.95;2.08;;;23.60;87.10;;;;;;5034662;28;20041;-69
2022/05/09 12:44:44;;;;;;;7.25;2.35;;;23.70;86.60;;;;;;5033736;28;20080;-69
2022/05/09 12:47:16;;;;;;;10.32;2.28;;;23.50;84.60;;;;;;5027755;28;20052;-69
2022/05/09 12:49:43;;;;;;;7.18;1.80;;;23.40;86.90;;;;;;5030168;28;20044;-68
2022/05/09 12:52:17;;;;;;;6.80;1.90;;;23.20;84.30;;;;;;5028472;28;20128;-69
2022/05/09 12:55:52;;;;;;;7.45;1.85;;;23.00;84.10;;;;;;5033425;28;20049;-68
2022/05/09 12:57:35;;;;;;;7.32;2.20;;;23.00;83.20;;;;;;5031093;28;20060;-71
2022/05/09 13:00:12;;;;;;;6.70;1.80;;;23.30;87.00;;;;;;5015704;28;20041;-71
2022/05/09 13:02:38;;;;;;;7.85;1.70;;;23.50;86.30;;;;;;5032954;28;20037;-74
2022/05/09 13:05:05;;;;;;;5.10;1.60;;;23.30;87.00;;;;;;5033651;28;20088;-71
2022/05/09 13:07:31;;;;;;;6.40;1.73;;;23.40;87.20;;;;;;5025600;28;20050;-67
2022/05/09 13:09:58;;;;;;;9.30;2.00;;;23.50;84.50;;;;;;5031747;28;20088;-70
2022/05/09 13:12:23;;;;;;;9.77;1.98;;;23.30;87.30;;;;;;5020911;28;20124;-71
2022/05/09 13:14:56;;;;;;;6.68;1.60;;;23.60;83.10;;;;;;5026482;28;20405;-74
2022/05/09 13:17:43;;;;;;;9.00;1.77;;;23.60;86.30;;;;;;5021595;28;20508;-69
2022/05/09 13:20:16;;;;;;;7.30;1.42;;;23.40;81.80;;;;;;5019598;28;20127;-68
2022/05/09 13:22:47;;;;;;;6.10;1.73;;;23.60;85.20;;;;;;4996780;28;20037;-73
2022/05/09 13:25:25;;;;;;;6.90;1.92;;;23.80;82.80;;;;;;5001591;28;20053;-73
2022/05/09 13:27:53;;;;;;;8.60;1.60;;;23.60;84.40;;;;;;5020592;28;20685;-69
2022/05/09 13:30:20;;;;;;;6.68;1.38;;;;;;;;;;5025347;28;20151;-70
2022/05/09 13:32:55;;;;;;;7.15;1.55;;;23.60;84.80;;;;;;5024856;28;20103;-73
2022/05/09 13:35:27;;;;;;;8.25;1.90;;;23.80;84.90;;;;;;5026038;28;20082;-71
2022/05/09 13:37:53;;;;;;;7.30;1.85;;;23.80;83.50;;;;;;5025175;28;20051;-73
2022/05/09 13:40:21;;;;;;;9.32;1.73;;;23.90;81.40;;;;;;5024869;28;20120;-73
2022/05/09 13:42:50;;;;;;;4.80;1.65;;;24.00;79.60;;;;;;5017213;28;20061;-67
2022/05/09 13:45:20;;;;;;;6.68;1.63;;;24.00;83.80;;;;;;5009435;28;20100;-70
2022/05/09 13:47:50;;;;;;;;;;;23.80;80.40;;;;;;5016522;28;20046;-71
2022/05/09 13:50:16;;;;;;;;;;;25.30;82.50;;;;;;5017319;28;20390;-69
2022/05/09 13:52:47;;;;;;;6.80;1.48;;;23.80;79.50;;;;;;5023931;28;19921;-65
2022/05/09 13:55:27;;;;;;;7.75;1.60;;;23.90;80.60;;;;;;5015389;28;20090;-70
2022/05/09 13:57:55;;;;;;;6.05;1.63;;;23.70;80.00;;;;;;5009349;28;20068;-73
2022/05/09 14:00:28;;;;;;;8.60;1.90;;;24.00;79.70;;;;;;5025739;28;20054;-72
2022/05/09 14:02:58;;;;;;;6.20;1.77;;;23.70;82.70;;;;;;5006721;28;20121;-72
2022/05/09 14:05:40;;;;;;;5.32;1.80;;;23.90;80.10;;;;;;4996762;28;20049;-70
2022/05/09 14:08:06;;;;;;;9.80;1.98;;;;;;;;;;5018316;28;20516;-67
2022/05/09 14:10:37;;;;;;;6.45;1.88;;;;;;;;;;5000772;28;20145;-69
2022/05/09 14:13:21;;;;;;;;;;;23.70;81.00;;;;;;5011891;28;20049;-68